sensor_id;sensor_type;location;lat;lon;timestamp;pressure;altitude;pressure_sealevel;temperature;humidity
59240;BME280;45010;53.640;10.578;2023-11-21T00:00:47;100354.47;;;26.97;34.77
59240;BME280;45010;53.640;10.578;2023-11-21T00:03:47;100348.56;;;26.95;35.27
59240;BME280;45010;53.640;10.578;2023-11-21T00:06:47;100359.56;;;26.99;34.75
59240;BME280;45010;53.640;10.578;2023-11-21T00:09:48;100342.03;;;26.86;35.16
59240;BME280;45010;53.640;10.578;2023-11-21T00:12:48;100352.34;;;26.99;35.22
59240;BME280;45010;53.640;10.578;2023-11-21T00:15:49;100359.81;;;26.97;35.10
59240;BME280;45010;53.640;10.578;2023-11-21T00:18:49;100326.97;;;26.75;35.18
59240;BME280;45010;53.640;10.578;2023-11-21T00:21:51;100368.97;;;27.02;35.05
59240;BME280;45010;53.640;10.578;2023-11-21T00:24:51;100380.22;;;27.04;34.73
59240;BME280;45010;53.640;10.578;2023-11-21T00:27:52;100373.75;;;26.99;34.75
59240;BME280;45010;53.640;10.578;2023-11-21T00:30:54;100384.44;;;26.99;34.97
59240;BME280;45010;53.640;10.578;2023-11-21T00:33:54;100397.88;;;27.05;34.59
59240;BME280;45010;53.640;10.578;2023-11-21T00:36:55;100397.06;;;27.04;34.65
59240;BME280;45010;53.640;10.578;2023-11-21T00:39:56;100399.72;;;27.04;34.93
59240;BME280;45010;53.640;10.578;2023-11-21T00:42:56;100392.72;;;26.98;34.83
59240;BME280;45010;53.640;10.578;2023-11-21T00:45:57;100400.81;;;27.03;35.15
59240;BME280;45010;53.640;10.578;2023-11-21T00:48:57;100389.81;;;26.99;34.74
59240;BME280;45010;53.640;10.578;2023-11-21T00:51:57;100404.78;;;27.01;34.43
59240;BME280;45010;53.640;10.578;2023-11-21T00:54:58;100416.56;;;26.99;34.97
59240;BME280;45010;53.640;10.578;2023-11-21T00:58:00;100430.53;;;27.02;34.96
59240;BME280;45010;53.640;10.578;2023-11-21T01:01:03;100419.19;;;26.94;34.67
59240;BME280;45010;53.640;10.578;2023-11-21T01:04:03;100422.94;;;26.93;35.12
59240;BME280;45010;53.640;10.578;2023-11-21T01:07:04;100438.50;;;26.96;34.55
59240;BME280;45010;53.640;10.578;2023-11-21T01:10:06;100442.25;;;26.95;35.01
59240;BME280;45010;53.640;10.578;2023-11-21T01:13:08;100449.69;;;26.93;34.95
59240;BME280;45010;53.640;10.578;2023-11-21T01:16:08;100450.75;;;26.92;34.96
59240;BME280;45010;53.640;10.578;2023-11-21T01:19:08;100446.41;;;26.86;34.73
59240;BME280;45010;53.640;10.578;2023-11-21T01:22:09;100450.19;;;26.90;35.01
59240;BME280;45010;53.640;10.578;2023-11-21T01:25:12;100458.22;;;26.90;34.29
59240;BME280;45010;53.640;10.578;2023-11-21T01:28:14;100457.66;;;26.88;34.64
59240;BME280;45010;53.640;10.578;2023-11-21T01:31:15;100447.97;;;26.82;34.95
59240;BME280;45010;53.640;10.578;2023-11-21T01:34:15;100458.47;;;26.89;34.64
59240;BME280;45010;53.640;10.578;2023-11-21T01:37:16;100465.75;;;26.93;34.64
59240;BME280;45010;53.640;10.578;2023-11-21T01:40:17;100467.94;;;26.96;34.94
59240;BME280;45010;53.640;10.578;2023-11-21T01:43:17;100455.53;;;26.90;34.50
59240;BME280;45010;53.640;10.578;2023-11-21T01:46:18;100472.72;;;26.94;34.63
59240;BME280;45010;53.640;10.578;2023-11-21T01:49:19;100467.13;;;26.96;34.72
59240;BME280;45010;53.640;10.578;2023-11-21T01:52:20;100460.41;;;26.93;34.37
59240;BME280;45010;53.640;10.578;2023-11-21T01:55:21;100464.59;;;26.89;34.88
59240;BME280;45010;53.640;10.578;2023-11-21T01:58:22;100465.13;;;26.86;34.40
59240;BME280;45010;53.640;10.578;2023-11-21T02:01:22;100477.97;;;26.84;34.75
59240;BME280;45010;53.640;10.578;2023-11-21T02:04:22;100477.66;;;26.80;34.81
59240;BME280;45010;53.640;10.578;2023-11-21T02:07:22;100471.38;;;26.69;34.87
59240;BME280;45010;53.640;10.578;2023-11-21T02:10:24;100490.16;;;26.75;34.78
59240;BME280;45010;53.640;10.578;2023-11-21T02:13:24;100498.13;;;26.69;35.01
59240;BME280;45010;53.640;10.578;2023-11-21T02:16:24;100498.66;;;26.66;35.11
59240;BME280;45010;53.640;10.578;2023-11-21T02:19:25;100506.63;;;26.61;34.72
59240;BME280;45010;53.640;10.578;2023-11-21T02:22:30;100509.22;;;26.56;34.78
59240;BME280;45010;53.640;10.578;2023-11-21T02:25:32;100515.88;;;26.53;34.94
59240;BME280;45010;53.640;10.578;2023-11-21T02:28:32;100523.84;;;26.48;34.78
59240;BME280;45010;53.640;10.578;2023-11-21T02:31:33;100520.78;;;26.39;35.01
59240;BME280;45010;53.640;10.578;2023-11-21T02:34:33;100527.75;;;26.40;35.01
59240;BME280;45010;53.640;10.578;2023-11-21T02:37:34;100535.22;;;26.38;34.97
59240;BME280;45010;53.640;10.578;2023-11-21T02:40:35;100532.47;;;26.33;34.85
59240;BME280;45010;53.640;10.578;2023-11-21T02:43:35;100537.50;;;26.29;34.91
59240;BME280;45010;53.640;10.578;2023-11-21T02:46:36;100534.41;;;26.21;35.10
59240;BME280;45010;53.640;10.578;2023-11-21T02:49:37;100538.97;;;26.20;34.87
59240;BME280;45010;53.640;10.578;2023-11-21T02:52:37;100537.84;;;26.16;35.18
59240;BME280;45010;53.640;10.578;2023-11-21T02:55:38;100546.59;;;26.11;35.36
59240;BME280;45010;53.640;10.578;2023-11-21T02:58:41;100534.63;;;25.97;35.39
59240;BME280;45010;53.640;10.578;2023-11-21T03:01:43;100550.75;;;26.02;35.33
59240;BME280;45010;53.640;10.578;2023-11-21T03:04:43;100546.94;;;25.98;35.67
59240;BME280;45010;53.640;10.578;2023-11-21T03:07:43;100549.03;;;25.96;35.67
59240;BME280;45010;53.640;10.578;2023-11-21T03:10:44;100551.41;;;25.92;35.41
59240;BME280;45010;53.640;10.578;2023-11-21T03:13:44;100546.81;;;25.87;35.71
59240;BME280;45010;53.640;10.578;2023-11-21T03:16:44;100546.47;;;25.84;35.73
59240;BME280;45010;53.640;10.578;2023-11-21T03:19:45;100546.13;;;25.80;35.48
59240;BME280;45010;53.640;10.578;2023-11-21T03:22:45;100546.63;;;25.77;35.45
59240;BME280;45010;53.640;10.578;2023-11-21T03:25:46;100542.50;;;25.69;35.68
59240;BME280;45010;53.640;10.578;2023-11-21T03:28:46;100560.13;;;25.70;35.72
59240;BME280;45010;53.640;10.578;2023-11-21T03:31:46;100567.84;;;25.67;35.46
59240;BME280;45010;53.640;10.578;2023-11-21T03:34:58;100575.28;;;25.64;35.68
59240;BME280;45010;53.640;10.578;2023-11-21T03:37:59;100577.41;;;25.62;35.71
59240;BME280;45010;53.640;10.578;2023-11-21T03:40:59;100581.59;;;25.58;35.89
59240;BME280;45010;53.640;10.578;2023-11-21T03:43:59;100589.28;;;25.55;35.78
59240;BME280;45010;53.640;10.578;2023-11-21T03:47:00;100593.22;;;25.52;35.86
59240;BME280;45010;53.640;10.578;2023-11-21T03:50:00;100593.59;;;25.44;36.00
59240;BME280;45010;53.640;10.578;2023-11-21T03:53:01;100596.25;;;25.44;35.85
59240;BME280;45010;53.640;10.578;2023-11-21T03:56:02;100595.59;;;25.36;36.10
59240;BME280;45010;53.640;10.578;2023-11-21T03:59:03;100614.38;;;25.42;36.01
59240;BME280;45010;53.640;10.578;2023-11-21T04:02:04;100621.84;;;25.39;36.07
59240;BME280;45010;53.640;10.578;2023-11-21T04:05:04;100618.56;;;25.37;36.09
59240;BME280;45010;53.640;10.578;2023-11-21T04:08:05;100629.75;;;25.34;36.14
59240;BME280;45010;53.640;10.578;2023-11-21T04:11:05;100633.47;;;25.33;36.25
59240;BME280;45010;53.640;10.578;2023-11-21T04:14:05;100637.19;;;25.32;36.09
59240;BME280;45010;53.640;10.578;2023-11-21T04:17:06;100621.44;;;25.19;36.44
59240;BME280;45010;53.640;10.578;2023-11-21T04:20:07;100647.16;;;25.25;36.20
59240;BME280;45010;53.640;10.578;2023-11-21T04:23:09;100646.59;;;25.23;36.34
59240;BME280;45010;53.640;10.578;2023-11-21T04:26:10;100658.34;;;25.22;36.42
59240;BME280;45010;53.640;10.578;2023-11-21T04:29:11;100660.41;;;25.20;36.33
59240;BME280;45010;53.640;10.578;2023-11-21T04:32:11;100672.13;;;25.19;36.47
59240;BME280;45010;53.640;10.578;2023-11-21T04:35:12;100667.84;;;25.18;36.38
59240;BME280;45010;53.640;10.578;2023-11-21T04:38:13;100668.34;;;25.15;36.51
59240;BME280;45010;53.640;10.578;2023-11-21T04:41:13;100667.75;;;25.12;36.39
59240;BME280;45010;53.640;10.578;2023-11-21T04:44:13;100679.47;;;25.11;36.69
59240;BME280;45010;53.640;10.578;2023-11-21T04:47:14;100679.97;;;25.08;36.64
59240;BME280;45010;53.640;10.578;2023-11-21T04:50:14;100690.63;;;25.08;36.76
59240;BME280;45010;53.640;10.578;2023-11-21T04:53:14;100686.25;;;25.02;36.70
59240;BME280;45010;53.640;10.578;2023-11-21T04:56:15;100696.44;;;25.05;36.50
59240;BME280;45010;53.640;10.578;2023-11-21T04:59:16;100700.16;;;25.04;36.67
59240;BME280;45010;53.640;10.578;2023-11-21T05:02:16;100694.81;;;25.04;36.60
59240;BME280;45010;53.640;10.578;2023-11-21T05:05:19;100691.56;;;25.02;36.57
59240;BME280;45010;53.640;10.578;2023-11-21T05:08:19;100698.97;;;25.00;36.75
59240;BME280;45010;53.640;10.578;2023-11-21T05:11:26;100676.28;;;24.85;36.72
59240;BME280;45010;53.640;10.578;2023-11-21T05:14:26;100713.84;;;24.96;37.37
59240;BME280;45010;53.640;10.578;2023-11-21T05:17:27;100722.88;;;24.95;36.79
59240;BME280;45010;53.640;10.578;2023-11-21T05:20:27;100722.31;;;24.93;36.85
59240;BME280;45010;53.640;10.578;2023-11-21T05:23:28;100728.69;;;24.92;36.87
59240;BME280;45010;53.640;10.578;2023-11-21T05:26:28;100731.59;;;24.90;37.15
59240;BME280;45010;53.640;10.578;2023-11-21T05:29:28;100730.78;;;24.90;36.93
59240;BME280;45010;53.640;10.578;2023-11-21T05:32:29;100729.16;;;24.89;37.26
59240;BME280;45010;53.640;10.578;2023-11-21T05:35:29;100730.44;;;24.86;36.95
59240;BME280;45010;53.640;10.578;2023-11-21T05:38:29;100734.97;;;24.85;37.04
59240;BME280;45010;53.640;10.578;2023-11-21T05:41:30;100738.69;;;24.84;36.95
59240;BME280;45010;53.640;10.578;2023-11-21T05:44:30;100740.31;;;24.85;36.95
59240;BME280;45010;53.640;10.578;2023-11-21T05:47:30;100742.38;;;24.83;36.98
59240;BME280;45010;53.640;10.578;2023-11-21T05:50:31;100738.53;;;24.79;36.96
59240;BME280;45010;53.640;10.578;2023-11-21T05:53:32;100749.00;;;24.81;37.09
59240;BME280;45010;53.640;10.578;2023-11-21T05:56:32;100764.16;;;24.80;37.04
59240;BME280;45010;53.640;10.578;2023-11-21T05:59:33;100764.16;;;24.80;37.09
59240;BME280;45010;53.640;10.578;2023-11-21T06:02:33;100760.91;;;24.78;36.99
59240;BME280;45010;53.640;10.578;2023-11-21T06:05:33;100779.34;;;24.80;37.10
59240;BME280;45010;53.640;10.578;2023-11-21T06:08:34;100776.94;;;24.78;37.17
59240;BME280;45010;53.640;10.578;2023-11-21T06:11:35;100781.44;;;24.78;37.05
59240;BME280;45010;53.640;10.578;2023-11-21T06:14:35;100782.25;;;24.78;37.06
59240;BME280;45010;53.640;10.578;2023-11-21T06:17:36;100791.28;;;24.77;37.28
59240;BME280;45010;53.640;10.578;2023-11-21T06:20:37;100801.16;;;24.77;37.10
59240;BME280;45010;53.640;10.578;2023-11-21T06:23:37;100801.84;;;24.72;37.30
59240;BME280;45010;53.640;10.578;2023-11-21T06:26:38;100813.09;;;24.74;37.16
59240;BME280;45010;53.640;10.578;2023-11-21T06:29:38;100812.75;;;24.70;37.36
59240;BME280;45010;53.640;10.578;2023-11-21T06:32:39;100797.75;;;24.57;37.09
59240;BME280;45010;53.640;10.578;2023-11-21T06:35:39;100818.66;;;24.72;37.24
59240;BME280;45010;53.640;10.578;2023-11-21T06:38:40;100827.91;;;24.70;37.19
59240;BME280;45010;53.640;10.578;2023-11-21T06:41:40;100836.53;;;24.72;37.34
59240;BME280;45010;53.640;10.578;2023-11-21T06:44:41;100841.84;;;24.72;37.17
59240;BME280;45010;53.640;10.578;2023-11-21T06:47:41;100837.44;;;24.66;37.20
59240;BME280;45010;53.640;10.578;2023-11-21T06:50:42;100843.91;;;24.70;37.16
59240;BME280;45010;53.640;10.578;2023-11-21T06:53:42;100846.44;;;24.65;37.37
59240;BME280;45010;53.640;10.578;2023-11-21T06:56:43;100857.47;;;24.68;37.16
59240;BME280;45010;53.640;10.578;2023-11-21T06:59:43;100867.34;;;24.68;37.30
59240;BME280;45010;53.640;10.578;2023-11-21T07:02:43;100872.69;;;24.68;37.23
59240;BME280;45010;53.640;10.578;2023-11-21T07:05:44;100877.44;;;24.66;37.41
59240;BME280;45010;53.640;10.578;2023-11-21T07:08:44;100880.09;;;24.66;37.05
59240;BME280;45010;53.640;10.578;2023-11-21T07:11:45;100888.09;;;24.66;37.18
59240;BME280;45010;53.640;10.578;2023-11-21T07:14:45;100887.06;;;24.67;37.11
59240;BME280;45010;53.640;10.578;2023-11-21T07:17:45;100888.09;;;24.66;37.25
59240;BME280;45010;53.640;10.578;2023-11-21T07:20:46;100896.09;;;24.66;37.37
59240;BME280;45010;53.640;10.578;2023-11-21T07:23:47;100905.13;;;24.65;37.51
59240;BME280;45010;53.640;10.578;2023-11-21T07:26:47;100905.13;;;24.65;37.16
59240;BME280;45010;53.640;10.578;2023-11-21T07:29:48;100915.78;;;24.65;37.31
59240;BME280;45010;53.640;10.578;2023-11-21T07:32:48;100898.34;;;24.50;37.30
59240;BME280;45010;53.640;10.578;2023-11-21T07:35:49;100919.97;;;24.61;37.33
59240;BME280;45010;53.640;10.578;2023-11-21T07:38:50;100919.97;;;24.61;37.55
59240;BME280;45010;53.640;10.578;2023-11-21T07:41:50;100932.84;;;24.64;37.41
59240;BME280;45010;53.640;10.578;2023-11-21T07:44:50;100933.88;;;24.63;37.36
59240;BME280;45010;53.640;10.578;2023-11-21T07:47:52;100937.59;;;24.62;37.36
59240;BME280;45010;53.640;10.578;2023-11-21T07:50:52;100948.25;;;24.62;37.00
59240;BME280;45010;53.640;10.578;2023-11-21T07:53:52;100945.44;;;24.56;37.45
59240;BME280;45010;53.640;10.578;2023-11-21T07:56:53;100953.59;;;24.62;37.46
59240;BME280;45010;53.640;10.578;2023-11-21T07:59:53;100951.97;;;24.61;37.44
59240;BME280;45010;53.640;10.578;2023-11-21T08:02:55;100955.69;;;24.60;37.54
59240;BME280;45010;53.640;10.578;2023-11-21T08:05:56;100961.00;;;24.60;37.53
59240;BME280;45010;53.640;10.578;2023-11-21T08:08:58;100964.69;;;24.58;37.52
59240;BME280;45010;53.640;10.578;2023-11-21T08:11:58;100956.69;;;24.58;37.42
59240;BME280;45010;53.640;10.578;2023-11-21T08:15:00;100963.06;;;24.57;37.58
59240;BME280;45010;53.640;10.578;2023-11-21T08:18:02;100953.31;;;24.51;37.47
59240;BME280;45010;53.640;10.578;2023-11-21T08:21:03;100979.53;;;24.54;37.67
59240;BME280;45010;53.640;10.578;2023-11-21T08:24:08;100974.63;;;24.51;38.25
59240;BME280;45010;53.640;10.578;2023-11-21T08:27:10;100976.72;;;24.49;38.56
59240;BME280;45010;53.640;10.578;2023-11-21T08:30:11;100984.94;;;24.48;38.51
59240;BME280;45010;53.640;10.578;2023-11-21T08:33:14;100981.44;;;24.47;38.45
59240;BME280;45010;53.640;10.578;2023-11-21T08:36:14;100984.09;;;24.47;38.46
59240;BME280;45010;53.640;10.578;2023-11-21T08:39:15;100990.63;;;24.51;38.35
59240;BME280;45010;53.640;10.578;2023-11-21T08:42:16;101003.75;;;24.53;38.47
59240;BME280;45010;53.640;10.578;2023-11-21T08:45:18;101005.72;;;24.57;38.03
59240;BME280;45010;53.640;10.578;2023-11-21T08:48:19;101013.31;;;24.61;38.22
59240;BME280;45010;53.640;10.578;2023-11-21T08:51:19;101014.47;;;24.65;37.93
59240;BME280;45010;53.640;10.578;2023-11-21T08:54:21;101009.00;;;24.60;37.69
59240;BME280;45010;53.640;10.578;2023-11-21T08:57:22;101030.19;;;24.73;37.54
59240;BME280;45010;53.640;10.578;2023-11-21T09:00:22;101030.53;;;24.77;37.53
59240;BME280;45010;53.640;10.578;2023-11-21T09:03:23;101030.91;;;24.80;37.41
59240;BME280;45010;53.640;10.578;2023-11-21T09:06:23;101039.06;;;24.85;37.44
59240;BME280;45010;53.640;10.578;2023-11-21T09:09:24;101034.91;;;24.90;36.98
59240;BME280;45010;53.640;10.578;2023-11-21T09:12:24;101041.88;;;24.91;36.66
59240;BME280;45010;53.640;10.578;2023-11-21T09:15:25;101047.59;;;24.94;36.82
59240;BME280;45010;53.640;10.578;2023-11-21T09:18:25;101055.72;;;25.00;36.73
59240;BME280;45010;53.640;10.578;2023-11-21T09:21:25;101066.75;;;25.03;36.44
59240;BME280;45010;53.640;10.578;2023-11-21T09:24:26;101074.75;;;25.03;36.29
59240;BME280;45010;53.640;10.578;2023-11-21T09:27:26;101075.91;;;25.07;36.35
59240;BME280;45010;53.640;10.578;2023-11-21T09:30:26;101078.16;;;25.10;36.27
59240;BME280;45010;53.640;10.578;2023-11-21T09:33:27;101093.25;;;25.17;36.32
59240;BME280;45010;53.640;10.578;2023-11-21T09:36:27;101074.31;;;25.06;36.00
59240;BME280;45010;53.640;10.578;2023-11-21T09:39:30;101094.81;;;25.24;35.93
59240;BME280;45010;53.640;10.578;2023-11-21T09:42:49;101105.84;;;25.28;35.87
59240;BME280;45010;53.640;10.578;2023-11-21T09:45:56;101099.69;;;25.28;35.83
59240;BME280;45010;53.640;10.578;2023-11-21T09:49:00;101112.72;;;25.36;35.84
59240;BME280;45010;53.640;10.578;2023-11-21T09:52:01;101114.72;;;25.41;35.77
59240;BME280;45010;53.640;10.578;2023-11-21T09:55:03;101114.25;;;25.44;35.49
59240;BME280;45010;53.640;10.578;2023-11-21T09:58:06;101099.97;;;25.38;35.18
59240;BME280;45010;53.640;10.578;2023-11-21T10:01:13;101126.69;;;25.50;35.35
59240;BME280;45010;53.640;10.578;2023-11-21T10:04:14;101122.38;;;25.49;35.16
59240;BME280;45010;53.640;10.578;2023-11-21T10:07:17;101123.59;;;25.53;34.92
59240;BME280;45010;53.640;10.578;2023-11-21T10:10:19;101112.97;;;25.46;34.87
59240;BME280;45010;53.640;10.578;2023-11-21T10:13:21;101140.13;;;25.62;34.59
59240;BME280;45010;53.640;10.578;2023-11-21T10:16:23;101135.34;;;25.64;34.74
59240;BME280;45010;53.640;10.578;2023-11-21T10:19:26;101091.59;;;25.34;34.57
59240;BME280;45010;53.640;10.578;2023-11-21T10:22:27;101123.03;;;25.63;34.47
59240;BME280;45010;53.640;10.578;2023-11-21T10:25:29;101137.72;;;25.72;34.42
59240;BME280;45010;53.640;10.578;2023-11-21T10:28:29;101133.38;;;25.71;34.58
59240;BME280;45010;53.640;10.578;2023-11-21T10:31:30;101145.84;;;25.77;34.45
59240;BME280;45010;53.640;10.578;2023-11-21T10:34:31;101133.78;;;25.75;34.41
59240;BME280;45010;53.640;10.578;2023-11-21T10:37:32;101132.72;;;25.76;34.20
59240;BME280;45010;53.640;10.578;2023-11-21T10:40:33;101119.94;;;25.78;34.15
59240;BME280;45010;53.640;10.578;2023-11-21T10:43:34;101139.94;;;25.87;34.48
59240;BME280;45010;53.640;10.578;2023-11-21T10:46:34;101142.63;;;25.87;34.36
59240;BME280;45010;53.640;10.578;2023-11-21T10:49:36;101146.44;;;25.91;34.23
59240;BME280;45010;53.640;10.578;2023-11-21T10:52:39;101151.22;;;25.89;34.33
59240;BME280;45010;53.640;10.578;2023-11-21T10:55:39;101162.03;;;25.95;34.15
59240;BME280;45010;53.640;10.578;2023-11-21T10:58:40;101166.09;;;25.97;34.24
59240;BME280;45010;53.640;10.578;2023-11-21T11:01:42;101163.66;;;25.96;34.12
59240;BME280;45010;53.640;10.578;2023-11-21T11:04:44;101164.00;;;25.99;34.27
59240;BME280;45010;53.640;10.578;2023-11-21T11:07:48;101148.78;;;26.00;33.69
59240;BME280;45010;53.640;10.578;2023-11-21T11:10:54;101147.75;;;26.01;33.88
59240;BME280;45010;53.640;10.578;2023-11-21T11:13:55;101157.75;;;26.05;33.55
59240;BME280;45010;53.640;10.578;2023-11-21T11:16:57;101169.25;;;26.06;34.17
59240;BME280;45010;53.640;10.578;2023-11-21T11:19:59;101170.88;;;26.07;34.28
59240;BME280;45010;53.640;10.578;2023-11-21T11:26:32;101203.09;;;26.12;33.93
59240;BME280;45010;53.640;10.578;2023-11-21T11:29:46;101190.50;;;26.13;34.23
59240;BME280;45010;53.640;10.578;2023-11-21T11:33:08;101198.31;;;26.14;33.99
59240;BME280;45010;53.640;10.578;2023-11-21T11:36:20;101184.81;;;26.09;34.06
59240;BME280;45010;53.640;10.578;2023-11-21T11:39:51;101197.88;;;26.17;33.85
59240;BME280;45010;53.640;10.578;2023-11-21T11:42:58;101190.88;;;26.16;34.15
59240;BME280;45010;53.640;10.578;2023-11-21T11:45:59;101182.28;;;26.14;34.22
59240;BME280;45010;53.640;10.578;2023-11-21T11:49:03;101193.09;;;26.19;33.97
59240;BME280;45010;53.640;10.578;2023-11-21T11:52:32;101199.84;;;26.22;34.17
59240;BME280;45010;53.640;10.578;2023-11-21T11:55:34;101206.00;;;26.23;33.79
59240;BME280;45010;53.640;10.578;2023-11-21T11:58:37;101202.75;;;26.21;33.75
59240;BME280;45010;53.640;10.578;2023-11-21T12:01:37;101205.78;;;26.24;33.80
59240;BME280;45010;53.640;10.578;2023-11-21T12:04:41;101205.56;;;26.26;33.61
59240;BME280;45010;53.640;10.578;2023-11-21T12:07:49;101155.50;;;25.90;33.73
59240;BME280;45010;53.640;10.578;2023-11-21T12:10:51;101214.16;;;26.28;33.77
59240;BME280;45010;53.640;10.578;2023-11-21T12:13:54;101214.16;;;26.28;33.76
59240;BME280;45010;53.640;10.578;2023-11-21T12:16:54;101216.72;;;26.23;33.78
59240;BME280;45010;53.640;10.578;2023-11-21T12:20:01;101218.72;;;26.27;33.85
59240;BME280;45010;53.640;10.578;2023-11-21T12:23:04;101182.84;;;26.04;33.73
59240;BME280;45010;53.640;10.578;2023-11-21T12:26:05;101227.66;;;26.33;33.91
59240;BME280;45010;53.640;10.578;2023-11-21T12:29:05;101226.03;;;26.32;33.86
59240;BME280;45010;53.640;10.578;2023-11-21T12:32:07;101222.78;;;26.30;33.53
59240;BME280;45010;53.640;10.578;2023-11-21T12:35:09;101226.50;;;26.29;33.96
59240;BME280;45010;53.640;10.578;2023-11-21T12:38:11;101236.72;;;26.32;33.69
59240;BME280;45010;53.640;10.578;2023-11-21T12:41:11;101236.16;;;26.30;33.53
59240;BME280;45010;53.640;10.578;2023-11-21T12:44:12;101246.25;;;26.28;33.69
59240;BME280;45010;53.640;10.578;2023-11-21T12:47:17;101245.81;;;26.31;33.51
59240;BME280;45010;53.640;10.578;2023-11-21T12:50:21;101272.41;;;26.38;33.80
59240;BME280;45010;53.640;10.578;2023-11-21T12:53:23;101267.91;;;26.38;33.89
59240;BME280;45010;53.640;10.578;2023-11-21T12:56:24;101258.81;;;26.39;33.26
59240;BME280;45010;53.640;10.578;2023-11-21T12:59:24;101274.06;;;26.39;33.73
59240;BME280;45010;53.640;10.578;2023-11-21T13:02:30;101274.06;;;26.39;33.52
59240;BME280;45010;53.640;10.578;2023-11-21T13:05:35;101269.16;;;26.36;33.68
59240;BME280;45010;53.640;10.578;2023-11-21T13:08:38;101287.19;;;26.40;33.73
59240;BME280;45010;53.640;10.578;2023-11-21T13:11:39;101288.03;;;26.41;33.60
59240;BME280;45010;53.640;10.578;2023-11-21T13:14:40;101289.66;;;26.42;33.34
59240;BME280;45010;53.640;10.578;2023-11-21T13:17:41;101304.91;;;26.41;33.42
59240;BME280;45010;53.640;10.578;2023-11-21T13:20:41;101292.31;;;26.30;33.57
59240;BME280;45010;53.640;10.578;2023-11-21T13:23:43;101313.50;;;26.43;33.64
59240;BME280;45010;53.640;10.578;2023-11-21T13:26:46;101313.50;;;26.43;33.78
59240;BME280;45010;53.640;10.578;2023-11-21T13:29:47;101317.56;;;26.46;33.89
59240;BME280;45010;53.640;10.578;2023-11-21T13:32:47;101322.09;;;26.45;33.56
59240;BME280;45010;53.640;10.578;2023-11-21T13:35:51;101327.44;;;26.45;33.71
59240;BME280;45010;53.640;10.578;2023-11-21T13:38:52;101331.16;;;26.44;33.78
59240;BME280;45010;53.640;10.578;2023-11-21T13:41:52;101329.53;;;26.43;33.80
59240;BME280;45010;53.640;10.578;2023-11-21T13:44:58;101326.88;;;26.43;33.76
59240;BME280;45010;53.640;10.578;2023-11-21T13:47:58;101329.53;;;26.43;33.90
59240;BME280;45010;53.640;10.578;2023-11-21T13:50:58;101332.22;;;26.43;33.52
59240;BME280;45010;53.640;10.578;2023-11-21T13:54:01;101331.63;;;26.41;33.91
59240;BME280;45010;53.640;10.578;2023-11-21T13:57:02;101338.63;;;26.42;33.92
59240;BME280;45010;53.640;10.578;2023-11-21T14:00:04;101349.31;;;26.42;33.97
59240;BME280;45010;53.640;10.578;2023-11-21T14:03:12;101346.50;;;26.37;33.84
59240;BME280;45010;53.640;10.578;2023-11-21T14:06:22;101366.41;;;26.41;33.63
59240;BME280;45010;53.640;10.578;2023-11-21T14:09:27;101356.72;;;26.40;33.75
59240;BME280;45010;53.640;10.578;2023-11-21T14:12:35;101362.06;;;26.40;33.67
59240;BME280;45010;53.640;10.578;2023-11-21T14:15:39;101367.44;;;26.40;33.62
59240;BME280;45010;53.640;10.578;2023-11-21T14:18:43;101373.25;;;26.37;33.88
59240;BME280;45010;53.640;10.578;2023-11-21T14:21:55;101380.00;;;26.40;33.91
59240;BME280;45010;53.640;10.578;2023-11-21T14:24:56;101388.25;;;26.38;33.63
59240;BME280;45010;53.640;10.578;2023-11-21T14:27:59;101397.09;;;26.39;33.71
59240;BME280;45010;53.640;10.578;2023-11-21T14:30:59;101404.50;;;26.37;33.49
59240;BME280;45010;53.640;10.578;2023-11-21T14:33:59;101406.25;;;26.31;33.54
59240;BME280;45010;53.640;10.578;2023-11-21T14:37:02;101412.78;;;26.35;33.97
59240;BME280;45010;53.640;10.578;2023-11-21T14:40:05;101421.03;;;26.34;33.96
59240;BME280;45010;53.640;10.578;2023-11-21T14:43:07;101431.72;;;26.34;34.00
59240;BME280;45010;53.640;10.578;2023-11-21T14:46:08;101430.88;;;26.33;34.07
59240;BME280;45010;53.640;10.578;2023-11-21T14:49:10;101421.25;;;26.32;34.03
59240;BME280;45010;53.640;10.578;2023-11-21T14:52:20;101428.06;;;26.28;34.24
59240;BME280;45010;53.640;10.578;2023-11-21T14:55:33;101425.25;;;26.23;33.86
59240;BME280;45010;53.640;10.578;2023-11-21T14:58:43;101436.69;;;26.30;33.79
59240;BME280;45010;53.640;10.578;2023-11-21T15:01:43;101444.13;;;26.28;33.94
59240;BME280;45010;53.640;10.578;2023-11-21T15:04:55;101444.94;;;26.28;33.73
59240;BME280;45010;53.640;10.578;2023-11-21T15:08:02;101451.13;;;26.29;34.13
59240;BME280;45010;53.640;10.578;2023-11-21T15:11:17;101452.97;;;26.28;33.99
59240;BME280;45010;53.640;10.578;2023-11-21T15:14:17;101455.63;;;26.28;33.99
59240;BME280;45010;53.640;10.578;2023-11-21T15:17:23;101447.50;;;26.16;33.83
59240;BME280;45010;53.640;10.578;2023-11-21T15:20:27;101429.56;;;26.05;34.26
59240;BME280;45010;53.640;10.578;2023-11-21T15:23:27;101470.84;;;26.28;33.81
59240;BME280;45010;53.640;10.578;2023-11-21T15:26:29;101481.56;;;26.28;34.01
59240;BME280;45010;53.640;10.578;2023-11-21T15:29:30;101486.91;;;26.28;33.80
59240;BME280;45010;53.640;10.578;2023-11-21T15:32:31;101484.06;;;26.23;33.75
59240;BME280;45010;53.640;10.578;2023-11-21T15:35:31;101494.34;;;26.26;33.97
59240;BME280;45010;53.640;10.578;2023-11-21T15:38:32;101506.66;;;26.27;33.64
59240;BME280;45010;53.640;10.578;2023-11-21T15:41:33;101484.56;;;26.13;33.52